sensor_id;sensor_type;location;lat;lon;timestamp;pressure;altitude;pressure_sealevel;temperature;humidity
42859;BME280;28505;56.970;40.998;2022-11-20T00:02:51;100530.34;;;-7.28;100.00
42859;BME280;28505;56.970;40.998;2022-11-20T00:08:14;100563.94;;;-6.99;100.00
42859;BME280;28505;56.970;40.998;2022-11-20T00:13:36;100541.50;;;-7.18;100.00
42859;BME280;28505;56.970;40.998;2022-11-20T00:18:58;100561.47;;;-7.09;100.00
42859;BME280;28505;56.970;40.998;2022-11-20T00:24:20;100544.13;;;-7.18;100.00
42859;BME280;28505;56.970;40.998;2022-11-20T00:29:43;100572.94;;;-6.93;100.00
42859;BME280;28505;56.970;40.998;2022-11-20T00:35:05;100571.97;;;-6.92;100.00
42859;BME280;28505;56.970;40.998;2022-11-20T00:40:27;100572.94;;;-6.93;100.00
42859;BME280;28505;56.970;40.998;2022-11-20T00:45:49;100578.50;;;-6.88;100.00
42859;BME280;28505;56.970;40.998;2022-11-20T00:51:12;100578.84;;;-6.83;100.00
42859;BME280;28505;56.970;40.998;2022-11-20T00:56:35;100541.81;;;-7.04;100.00
42859;BME280;28505;56.970;40.998;2022-11-20T01:01:57;100545.41;;;-6.97;100.00
42859;BME280;28505;56.970;40.998;2022-11-20T01:07:19;100541.97;;;-6.98;100.00
42859;BME280;28505;56.970;40.998;2022-11-20T01:12:41;100528.38;;;-7.10;100.00
42859;BME280;28505;56.970;40.998;2022-11-20T01:18:03;100529.38;;;-7.11;100.00
42859;BME280;28505;56.970;40.998;2022-11-20T01:23:26;100518.25;;;-7.21;100.00
42859;BME280;28505;56.970;40.998;2022-11-20T01:28:49;100535.09;;;-7.07;100.00
42859;BME280;28505;56.970;40.998;2022-11-20T01:34:19;100566.56;;;-6.99;100.00
42859;BME280;28505;56.970;40.998;2022-11-20T01:39:42;100535.94;;;-7.15;100.00
42859;BME280;28505;56.970;40.998;2022-11-20T01:51:08;100544.94;;;-7.09;100.00
42859;BME280;28505;56.970;40.998;2022-11-20T01:56:36;100533.44;;;-7.16;100.00
42859;BME280;28505;56.970;40.998;2022-11-20T02:02:00;100520.22;;;-7.15;100.00
42859;BME280;28505;56.970;40.998;2022-11-20T02:07:23;100530.34;;;-7.12;100.00
42859;BME280;28505;56.970;40.998;2022-11-20T02:12:45;100531.34;;;-7.04;100.00
42859;BME280;28505;56.970;40.998;2022-11-20T02:18:28;100542.78;;;-6.97;100.00
42859;BME280;28505;56.970;40.998;2022-11-20T02:29:49;100526.09;;;-6.88;100.00
42859;BME280;28505;56.970;40.998;2022-11-20T02:40:51;100530.66;;;-6.90;100.00
42859;BME280;28505;56.970;40.998;2022-11-20T02:46:15;100513.97;;;-7.05;100.00
42859;BME280;28505;56.970;40.998;2022-11-20T02:51:37;100531.19;;;-6.87;100.00
42859;BME280;28505;56.970;40.998;2022-11-20T02:56:59;100521.84;;;-6.89;100.00
42859;BME280;28505;56.970;40.998;2022-11-20T03:02:21;100530.63;;;-6.74;100.00
42859;BME280;28505;56.970;40.998;2022-11-20T03:07:44;100528.34;;;-6.77;100.00
42859;BME280;28505;56.970;40.998;2022-11-20T03:13:06;100511.50;;;-6.82;100.00
42859;BME280;28505;56.970;40.998;2022-11-20T03:18:28;100513.13;;;-6.81;100.00
42859;BME280;28505;56.970;40.998;2022-11-20T03:23:50;100513.13;;;-6.81;100.00
42859;BME280;28505;56.970;40.998;2022-11-20T03:29:13;100511.31;;;-6.81;100.00
42859;BME280;28505;56.970;40.998;2022-11-20T03:34:35;100511.66;;;-6.84;100.00
42859;BME280;28505;56.970;40.998;2022-11-20T03:39:58;100502.34;;;-6.87;100.00
42859;BME280;28505;56.970;40.998;2022-11-20T03:45:20;100496.59;;;-6.90;100.00
42859;BME280;28505;56.970;40.998;2022-11-20T03:50:42;100476.31;;;-6.96;100.00
42859;BME280;28505;56.970;40.998;2022-11-20T03:56:04;100478.94;;;-6.96;100.00
42859;BME280;28505;56.970;40.998;2022-11-20T04:01:33;100490.88;;;-6.86;100.00
42859;BME280;28505;56.970;40.998;2022-11-20T04:06:55;100485.78;;;-6.79;100.00
42859;BME280;28505;56.970;40.998;2022-11-20T04:12:18;100494.94;;;-6.75;100.00
42859;BME280;28505;56.970;40.998;2022-11-20T04:17:40;100497.41;;;-6.73;100.00
42859;BME280;28505;56.970;40.998;2022-11-20T04:23:02;100493.97;;;-6.82;100.00
42859;BME280;28505;56.970;40.998;2022-11-20T04:28:24;100483.47;;;-6.82;100.00
42859;BME280;28505;56.970;40.998;2022-11-20T04:33:46;100490.84;;;-6.77;100.00
42859;BME280;28505;56.970;40.998;2022-11-20T04:39:12;100493.94;;;-6.74;100.00
42859;BME280;28505;56.970;40.998;2022-11-20T04:44:37;100506.03;;;-6.65;100.00
42859;BME280;28505;56.970;40.998;2022-11-20T04:49:59;100508.38;;;-6.70;100.00
42859;BME280;28505;56.970;40.998;2022-11-20T04:55:22;100509.00;;;-6.68;100.00
42859;BME280;28505;56.970;40.998;2022-11-20T05:00:44;100507.69;;;-6.64;100.00
42859;BME280;28505;56.970;40.998;2022-11-20T05:06:10;100514.41;;;-6.61;100.00
42859;BME280;28505;56.970;40.998;2022-11-20T05:11:32;100500.50;;;-6.70;100.00
42859;BME280;28505;56.970;40.998;2022-11-20T05:16:54;100497.22;;;-6.72;100.00
42859;BME280;28505;56.970;40.998;2022-11-20T05:22:19;100509.81;;;-6.67;100.00
42859;BME280;28505;56.970;40.998;2022-11-20T05:27:41;100511.47;;;-6.74;100.00
42859;BME280;28505;56.970;40.998;2022-11-20T05:33:04;100493.97;;;-6.82;100.00
42859;BME280;28505;56.970;40.998;2022-11-20T05:38:26;100513.63;;;-6.70;100.00
42859;BME280;28505;56.970;40.998;2022-11-20T05:43:49;100520.13;;;-6.57;100.00
42859;BME280;28505;56.970;40.998;2022-11-20T05:49:12;100508.38;;;-6.70;100.00
42859;BME280;28505;56.970;40.998;2022-11-20T05:54:34;100516.19;;;-6.62;100.00
42859;BME280;28505;56.970;40.998;2022-11-20T05:59:56;100511.81;;;-6.69;100.00
42859;BME280;28505;56.970;40.998;2022-11-20T06:05:22;100530.94;;;-6.52;100.00
42859;BME280;28505;56.970;40.998;2022-11-20T06:10:44;100534.56;;;-6.53;100.00
42859;BME280;28505;56.970;40.998;2022-11-20T06:16:06;100513.44;;;-6.60;100.00
42859;BME280;28505;56.970;40.998;2022-11-20T06:21:28;100533.03;;;-6.48;100.00
42859;BME280;28505;56.970;40.998;2022-11-20T06:26:51;100541.06;;;-6.41;100.00
42859;BME280;28505;56.970;40.998;2022-11-20T06:32:12;100535.00;;;-6.42;100.00
42859;BME280;28505;56.970;40.998;2022-11-20T06:37:34;100524.34;;;-6.40;100.00
42859;BME280;28505;56.970;40.998;2022-11-20T06:42:57;100537.75;;;-6.35;100.00
42859;BME280;28505;56.970;40.998;2022-11-20T06:48:19;100545.81;;;-6.37;100.00
42859;BME280;28505;56.970;40.998;2022-11-20T06:53:42;100529.31;;;-6.53;100.00
42859;BME280;28505;56.970;40.998;2022-11-20T06:59:05;100553.22;;;-6.40;100.00
42859;BME280;28505;56.970;40.998;2022-11-20T07:04:28;100572.50;;;-6.25;100.00
42859;BME280;28505;56.970;40.998;2022-11-20T07:09:50;100558.13;;;-6.37;100.00
42859;BME280;28505;56.970;40.998;2022-11-20T07:15:12;100592.19;;;-6.21;100.00
42859;BME280;28505;56.970;40.998;2022-11-20T07:20:34;100588.38;;;-6.18;100.00
42859;BME280;28505;56.970;40.998;2022-11-20T07:25:56;100559.09;;;-6.30;100.00
42859;BME280;28505;56.970;40.998;2022-11-20T07:31:18;100577.69;;;-6.00;100.00
42859;BME280;28505;56.970;40.998;2022-11-20T07:36:40;100581.88;;;-5.91;100.00
42859;BME280;28505;56.970;40.998;2022-11-20T07:42:02;100570.56;;;-5.92;100.00
42859;BME280;28505;56.970;40.998;2022-11-20T07:47:24;100562.88;;;-5.93;100.00
42859;BME280;28505;56.970;40.998;2022-11-20T07:52:46;100574.16;;;-5.84;100.00
42859;BME280;28505;56.970;40.998;2022-11-20T07:58:08;100558.31;;;-5.99;100.00
42859;BME280;28505;56.970;40.998;2022-11-20T08:03:31;100565.78;;;-5.88;100.00
42859;BME280;28505;56.970;40.998;2022-11-20T08:08:53;100564.56;;;-6.00;100.00
42859;BME280;28505;56.970;40.998;2022-11-20T08:14:16;100579.31;;;-5.99;100.00
42859;BME280;28505;56.970;40.998;2022-11-20T08:19:38;100577.69;;;-6.00;100.00
42859;BME280;28505;56.970;40.998;2022-11-20T08:25:00;100597.25;;;-5.80;100.00
42859;BME280;28505;56.970;40.998;2022-11-20T08:30:23;100578.63;;;-5.93;100.00
42859;BME280;28505;56.970;40.998;2022-11-20T08:35:46;100597.25;;;-5.80;100.00
42859;BME280;28505;56.970;40.998;2022-11-20T08:41:08;100558.97;;;-5.97;100.00
42859;BME280;28505;56.970;40.998;2022-11-20T08:46:45;100590.97;;;-5.71;100.00
42859;BME280;28505;56.970;40.998;2022-11-20T08:52:08;100584.78;;;-5.78;100.00
42859;BME280;28505;56.970;40.998;2022-11-20T08:57:35;100586.47;;;-5.85;100.00
42859;BME280;28505;56.970;40.998;2022-11-20T09:03:07;100596.78;;;-5.83;100.00
42859;BME280;28505;56.970;40.998;2022-11-20T09:08:33;100594.69;;;-5.88;100.00
42859;BME280;28505;56.970;40.998;2022-11-20T09:13:57;100596.97;;;-5.85;100.00
42859;BME280;28505;56.970;40.998;2022-11-20T09:19:20;100595.91;;;-5.76;100.00
42859;BME280;28505;56.970;40.998;2022-11-20T09:25:02;100587.34;;;-5.70;100.00
42859;BME280;28505;56.970;40.998;2022-11-20T09:30:25;100591.59;;;-5.60;100.00
42859;BME280;28505;56.970;40.998;2022-11-20T09:35:47;100590.56;;;-5.51;100.00
42859;BME280;28505;56.970;40.998;2022-11-20T09:41:32;100597.75;;;-5.45;100.00
42859;BME280;28505;56.970;40.998;2022-11-20T09:58:33;100607.41;;;-5.14;100.00
42859;BME280;28505;56.970;40.998;2022-11-20T10:04:10;100595.44;;;-5.17;100.00
42859;BME280;28505;56.970;40.998;2022-11-20T10:09:37;100583.41;;;-5.11;100.00
42859;BME280;28505;56.970;40.998;2022-11-20T10:15:12;100568.22;;;-5.01;100.00
42859;BME280;28505;56.970;40.998;2022-11-20T10:26:58;100556.13;;;-4.73;100.00
42859;BME280;28505;56.970;40.998;2022-11-20T10:32:38;100557.50;;;-4.77;100.00
42859;BME280;28505;56.970;40.998;2022-11-20T10:38:26;100585.25;;;-4.97;100.00
42859;BME280;28505;56.970;40.998;2022-11-20T10:44:22;100583.97;;;-5.24;100.00
42859;BME280;28505;56.970;40.998;2022-11-20T10:50:27;100591.75;;;-5.31;100.00
42859;BME280;28505;56.970;40.998;2022-11-20T10:56:47;100603.25;;;-5.32;100.00
42859;BME280;28505;56.970;40.998;2022-11-20T11:10:31;100657.38;;;-5.54;100.00
42859;BME280;28505;56.970;40.998;2022-11-20T11:16:04;100647.34;;;-5.81;100.00
42859;BME280;28505;56.970;40.998;2022-11-20T11:21:31;100653.88;;;-5.85;100.00
42859;BME280;28505;56.970;40.998;2022-11-20T11:27:11;100661.63;;;-5.84;100.00
42859;BME280;28505;56.970;40.998;2022-11-20T11:32:38;100651.44;;;-5.87;100.00
42859;BME280;28505;56.970;40.998;2022-11-20T11:38:12;100679.47;;;-5.71;100.00
42859;BME280;28505;56.970;40.998;2022-11-20T11:43:38;100678.00;;;-5.74;100.00
42859;BME280;28505;56.970;40.998;2022-11-20T11:49:19;100669.28;;;-5.74;100.00
42859;BME280;28505;56.970;40.998;2022-11-20T11:54:56;100652.06;;;-5.77;100.00
42859;BME280;28505;56.970;40.998;2022-11-20T12:00:22;100648.31;;;-5.82;100.00
42859;BME280;28505;56.970;40.998;2022-11-20T12:05:49;100636.69;;;-5.88;100.00
42859;BME280;28505;56.970;40.998;2022-11-20T12:12:07;100664.56;;;-5.87;100.00
42859;BME280;28505;56.970;40.998;2022-11-20T12:17:04;100644.56;;;-5.88;100.00
42859;BME280;28505;56.970;40.998;2022-11-20T12:23:16;100639.03;;;-5.93;100.00
42859;BME280;28505;56.970;40.998;2022-11-20T12:34:53;100667.41;;;-5.97;100.00
42859;BME280;28505;56.970;40.998;2022-11-20T12:52:11;100675.03;;;-5.79;100.00
42859;BME280;28505;56.970;40.998;2022-11-20T12:57:58;100655.59;;;-5.93;100.00
42859;BME280;28505;56.970;40.998;2022-11-20T13:03:44;100681.00;;;-5.85;100.00
42859;BME280;28505;56.970;40.998;2022-11-20T13:09:13;100666.44;;;-6.04;100.00
42859;BME280;28505;56.970;40.998;2022-11-20T13:14:52;100673.59;;;-5.90;100.00
42859;BME280;28505;56.970;40.998;2022-11-20T13:20:18;100644.50;;;-6.11;100.00
42859;BME280;28505;56.970;40.998;2022-11-20T13:25:41;100677.09;;;-6.05;100.00
42859;BME280;28505;56.970;40.998;2022-11-20T13:31:31;100665.16;;;-6.16;100.00
42859;BME280;28505;56.970;40.998;2022-11-20T13:36:55;100677.13;;;-6.14;100.00
42859;BME280;28505;56.970;40.998;2022-11-20T13:42:28;100670.88;;;-6.13;100.00
42859;BME280;28505;56.970;40.998;2022-11-20T13:47:52;100659.41;;;-6.12;100.00
42859;BME280;28505;56.970;40.998;2022-11-20T14:06:01;100678.44;;;-6.01;100.00
42859;BME280;28505;56.970;40.998;2022-11-20T14:11:30;100652.19;;;-6.09;100.00
42859;BME280;28505;56.970;40.998;2022-11-20T14:17:22;100679.41;;;-5.94;100.00
42859;BME280;28505;56.970;40.998;2022-11-20T14:22:49;100656.13;;;-6.14;100.00
42859;BME280;28505;56.970;40.998;2022-11-20T14:28:29;100651.53;;;-6.12;100.00
42859;BME280;28505;56.970;40.998;2022-11-20T14:33:54;100645.63;;;-6.14;100.00
42859;BME280;28505;56.970;40.998;2022-11-20T14:39:33;100660.06;;;-6.01;100.00
42859;BME280;28505;56.970;40.998;2022-11-20T14:44:59;100654.66;;;-6.08;100.00
42859;BME280;28505;56.970;40.998;2022-11-20T14:50:29;100642.88;;;-6.28;100.00
42859;BME280;28505;56.970;40.998;2022-11-20T14:56:00;100673.84;;;-6.16;100.00
42859;BME280;28505;56.970;40.998;2022-11-20T15:01:37;100665.81;;;-6.22;100.00
42859;BME280;28505;56.970;40.998;2022-11-20T15:07:00;100673.22;;;-6.18;100.00
42859;BME280;28505;56.970;40.998;2022-11-20T15:12:29;100685.31;;;-6.08;100.00
42859;BME280;28505;56.970;40.998;2022-11-20T15:17:51;100670.75;;;-6.19;100.00
42859;BME280;28505;56.970;40.998;2022-11-20T15:23:18;100703.22;;;-6.04;100.00
42859;BME280;28505;56.970;40.998;2022-11-20T15:28:45;100685.66;;;-6.12;100.00
42859;BME280;28505;56.970;40.998;2022-11-20T15:34:22;100720.59;;;-6.03;100.00
42859;BME280;28505;56.970;40.998;2022-11-20T15:39:51;100721.72;;;-6.05;100.00
42859;BME280;28505;56.970;40.998;2022-11-20T15:45:17;100702.38;;;-6.13;100.00
42859;BME280;28505;56.970;40.998;2022-11-20T15:56:20;100721.06;;;-5.99;100.00
42859;BME280;28505;56.970;40.998;2022-11-20T16:01:47;100715.50;;;-6.13;100.00
42859;BME280;28505;56.970;40.998;2022-11-20T16:07:13;100712.72;;;-6.11;100.00
42859;BME280;28505;56.970;40.998;2022-11-20T16:12:36;100717.81;;;-6.18;100.00
42859;BME280;28505;56.970;40.998;2022-11-20T16:18:19;100714.53;;;-6.20;100.00
42859;BME280;28505;56.970;40.998;2022-11-20T16:23:45;100725.00;;;-6.12;100.00
42859;BME280;28505;56.970;40.998;2022-11-20T16:29:13;100712.88;;;-6.13;100.00
42859;BME280;28505;56.970;40.998;2022-11-20T16:34:40;100710.59;;;-6.16;100.00
42859;BME280;28505;56.970;40.998;2022-11-20T16:40:06;100717.16;;;-6.03;100.00
42859;BME280;28505;56.970;40.998;2022-11-20T16:45:30;100714.19;;;-6.08;100.00
42859;BME280;28505;56.970;40.998;2022-11-20T16:50:54;100713.06;;;-6.14;100.00
42859;BME280;28505;56.970;40.998;2022-11-20T16:56:18;100705.97;;;-6.05;100.00
42859;BME280;28505;56.970;40.998;2022-11-20T17:01:42;100682.88;;;-6.26;100.00
42859;BME280;28505;56.970;40.998;2022-11-20T17:07:08;100684.03;;;-6.29;100.00
42859;BME280;28505;56.970;40.998;2022-11-20T17:12:36;100690.59;;;-6.25;100.00
42859;BME280;28505;56.970;40.998;2022-11-20T17:18:10;100698.78;;;-6.20;100.00
42859;BME280;28505;56.970;40.998;2022-11-20T17:23:38;100699.28;;;-6.16;100.00
42859;BME280;28505;56.970;40.998;2022-11-20T17:29:03;100694.19;;;-6.26;100.00
42859;BME280;28505;56.970;40.998;2022-11-20T17:34:29;100675.03;;;-6.43;100.00
42859;BME280;28505;56.970;40.998;2022-11-20T17:39:52;100679.94;;;-6.48;100.00
42859;BME280;28505;56.970;40.998;2022-11-20T17:45:30;100691.94;;;-6.53;100.00
42859;BME280;28505;56.970;40.998;2022-11-20T17:50:59;100712.91;;;-6.45;100.00
42859;BME280;28505;56.970;40.998;2022-11-20T17:56:22;100689.28;;;-6.62;100.00
42859;BME280;28505;56.970;40.998;2022-11-20T18:02:04;100676.81;;;-6.68;100.00
42859;BME280;28505;56.970;40.998;2022-11-20T18:07:26;100688.63;;;-6.55;100.00
42859;BME280;28505;56.970;40.998;2022-11-20T18:12:49;100670.28;;;-6.64;100.00
42859;BME280;28505;56.970;40.998;2022-11-20T18:18:14;100667.16;;;-6.59;100.00
42859;BME280;28505;56.970;40.998;2022-11-20T18:23:42;100678.63;;;-6.52;100.00
42859;BME280;28505;56.970;40.998;2022-11-20T18:29:05;100697.81;;;-6.43;100.00
42859;BME280;28505;56.970;40.998;2022-11-20T18:34:30;100682.88;;;-6.51;100.00
42859;BME280;28505;56.970;40.998;2022-11-20T18:39:59;100701.25;;;-6.43;100.00
42859;BME280;28505;56.970;40.998;2022-11-20T18:45:26;100723.72;;;-6.40;100.00
42859;BME280;28505;56.970;40.998;2022-11-20T18:50:52;100718.97;;;-6.37;100.00
42859;BME280;28505;56.970;40.998;2022-11-20T18:56:26;100717.50;;;-6.39;100.00
42859;BME280;28505;56.970;40.998;2022-11-20T19:01:52;100706.03;;;-6.46;100.00
42859;BME280;28505;56.970;40.998;2022-11-20T19:07:21;100717.81;;;-6.42;100.00
42859;BME280;28505;56.970;40.998;2022-11-20T19:12:48;100718.81;;;-6.43;100.00
42859;BME280;28505;56.970;40.998;2022-11-20T19:18:11;100728.97;;;-6.40;100.00
42859;BME280;28505;56.970;40.998;2022-11-20T19:23:41;100723.38;;;-6.45;100.00
42859;BME280;28505;56.970;40.998;2022-11-20T19:29:04;100714.88;;;-6.55;100.00
42859;BME280;28505;56.970;40.998;2022-11-20T19:34:35;100730.44;;;-6.46;100.00
42859;BME280;28505;56.970;40.998;2022-11-20T19:40:01;100714.88;;;-6.55;100.00
42859;BME280;28505;56.970;40.998;2022-11-20T19:45:25;100715.19;;;-6.58;100.00
42859;BME280;28505;56.970;40.998;2022-11-20T19:50:50;100739.78;;;-6.35;100.00
42859;BME280;28505;56.970;40.998;2022-11-20T19:56:22;100711.25;;;-6.46;100.00
42859;BME280;28505;56.970;40.998;2022-11-20T20:01:56;100737.81;;;-6.33;100.00
42859;BME280;28505;56.970;40.998;2022-11-20T20:07:40;100708.31;;;-6.60;100.00
42859;BME280;28505;56.970;40.998;2022-11-20T20:13:05;100699.59;;;-6.68;100.00
42859;BME280;28505;56.970;40.998;2022-11-20T20:18:37;100729.13;;;-6.50;100.00
42859;BME280;28505;56.970;40.998;2022-11-20T20:24:14;100740.63;;;-6.43;100.00
42859;BME280;28505;56.970;40.998;2022-11-20T20:29:47;100732.88;;;-6.44;100.00
42859;BME280;28505;56.970;40.998;2022-11-20T20:35:23;100727.66;;;-6.52;100.00
42859;BME280;28505;56.970;40.998;2022-11-20T20:41:04;100740.78;;;-6.36;100.00
42859;BME280;28505;56.970;40.998;2022-11-20T20:46:31;100720.44;;;-6.50;100.00
42859;BME280;28505;56.970;40.998;2022-11-20T20:52:11;100721.25;;;-6.50;100.00
42859;BME280;28505;56.970;40.998;2022-11-20T20:57:53;100722.41;;;-6.44;100.00
42859;BME280;28505;56.970;40.998;2022-11-20T21:03:27;100714.53;;;-6.52;100.00
42859;BME280;28505;56.970;40.998;2022-11-20T21:08:53;100674.88;;;-6.66;100.00
42859;BME280;28505;56.970;40.998;2022-11-20T21:14:18;100681.41;;;-6.62;100.00
42859;BME280;28505;56.970;40.998;2022-11-20T21:19:40;100684.84;;;-6.61;100.00
42859;BME280;28505;56.970;40.998;2022-11-20T21:25:02;100713.25;;;-6.40;100.00
42859;BME280;28505;56.970;40.998;2022-11-20T21:30:24;100676.34;;;-6.63;100.00
42859;BME280;28505;56.970;40.998;2022-11-20T21:35:46;100677.63;;;-6.51;100.00
42859;BME280;28505;56.970;40.998;2022-11-20T21:41:11;100708.81;;;-6.40;100.00
42859;BME280;28505;56.970;40.998;2022-11-20T21:46:36;100672.72;;;-6.62;100.00
42859;BME280;28505;56.970;40.998;2022-11-20T21:51:59;100677.81;;;-6.61;100.00
42859;BME280;28505;56.970;40.998;2022-11-20T21:57:21;100701.94;;;-6.41;100.00
42859;BME280;28505;56.970;40.998;2022-11-20T22:02:43;100708.81;;;-6.23;100.00
42859;BME280;28505;56.970;40.998;2022-11-20T22:08:05;100682.56;;;-6.40;100.00
42859;BME280;28505;56.970;40.998;2022-11-20T22:13:28;100712.91;;;-6.21;100.00
42859;BME280;28505;56.970;40.998;2022-11-20T22:19:09;100679.13;;;-6.32;100.00
42859;BME280;28505;56.970;40.998;2022-11-20T22:24:31;100692.38;;;-6.25;100.00
42859;BME280;28505;56.970;40.998;2022-11-20T22:29:53;100675.16;;;-6.28;100.00
42859;BME280;28505;56.970;40.998;2022-11-20T22:35:15;100693.22;;;-6.17;100.00
42859;BME280;28505;56.970;40.998;2022-11-20T22:40:37;100710.91;;;-6.19;100.00
42859;BME280;28505;56.970;40.998;2022-11-20T22:51:32;100684.69;;;-6.35;100.00
42859;BME280;28505;56.970;40.998;2022-11-20T22:56:54;100658.47;;;-6.51;100.00
42859;BME280;28505;56.970;40.998;2022-11-20T23:02:16;100659.09;;;-6.41;100.00
42859;BME280;28505;56.970;40.998;2022-11-20T23:07:38;100678.13;;;-6.23;100.00
42859;BME280;28505;56.970;40.998;2022-11-20T23:13:01;100674.19;;;-6.27;100.00
42859;BME280;28505;56.970;40.998;2022-11-20T23:18:23;100679.59;;;-6.28;100.00
42859;BME280;28505;56.970;40.998;2022-11-20T23:23:50;100672.38;;;-6.26;100.00
42859;BME280;28505;56.970;40.998;2022-11-20T23:29:13;100659.94;;;-6.41;100.00
42859;BME280;28505;56.970;40.998;2022-11-20T23:34:35;100673.88;;;-6.32;100.00
42859;BME280;28505;56.970;40.998;2022-11-20T23:39:57;100668.94;;;-6.35;100.00
42859;BME280;28505;56.970;40.998;2022-11-20T23:45:19;100648.94;;;-6.44;100.00
42859;BME280;28505;56.970;40.998;2022-11-20T23:50:42;100679.94;;;-6.23;100.00
42859;BME280;28505;56.970;40.998;2022-11-20T23:56:05;100669.59;;;-6.25;100.00
